sensor_id;sensor_type;location;lat;lon;timestamp;P1;durP1;ratioP1;P2;durP2;ratioP2
6671;SDS011;3372;48.690;12.362;2024-01-30T00:01:55;13.27;;;8.55;;
6671;SDS011;3372;48.690;12.362;2024-01-30T00:04:21;12.00;;;8.05;;
6671;SDS011;3372;48.690;12.362;2024-01-30T00:06:47;11.88;;;8.50;;
6671;SDS011;3372;48.690;12.362;2024-01-30T00:09:13;15.02;;;9.00;;
6671;SDS011;3372;48.690;12.362;2024-01-30T00:11:40;15.43;;;8.70;;
6671;SDS011;3372;48.690;12.362;2024-01-30T00:14:06;10.05;;;7.38;;
6671;SDS011;3372;48.690;12.362;2024-01-30T00:16:32;11.88;;;7.82;;
6671;SDS011;3372;48.690;12.362;2024-01-30T00:18:58;13.45;;;9.63;;
6671;SDS011;3372;48.690;12.362;2024-01-30T00:21:24;14.05;;;8.52;;
6671;SDS011;3372;48.690;12.362;2024-01-30T00:23:50;17.10;;;8.55;;
6671;SDS011;3372;48.690;12.362;2024-01-30T00:26:16;15.85;;;8.73;;
6671;SDS011;3372;48.690;12.362;2024-01-30T00:28:43;14.73;;;9.05;;
6671;SDS011;3372;48.690;12.362;2024-01-30T00:31:09;13.27;;;8.98;;
6671;SDS011;3372;48.690;12.362;2024-01-30T00:33:41;16.40;;;8.93;;
6671;SDS011;3372;48.690;12.362;2024-01-30T00:36:08;12.40;;;8.68;;
6671;SDS011;3372;48.690;12.362;2024-01-30T00:38:34;16.17;;;9.52;;
6671;SDS011;3372;48.690;12.362;2024-01-30T00:41:00;17.65;;;9.45;;
6671;SDS011;3372;48.690;12.362;2024-01-30T00:43:27;15.70;;;8.88;;
6671;SDS011;3372;48.690;12.362;2024-01-30T00:45:53;14.93;;;9.93;;
6671;SDS011;3372;48.690;12.362;2024-01-30T00:48:19;18.77;;;10.15;;
6671;SDS011;3372;48.690;12.362;2024-01-30T00:50:45;15.98;;;12.88;;
6671;SDS011;3372;48.690;12.362;2024-01-30T00:53:11;14.15;;;9.65;;
6671;SDS011;3372;48.690;12.362;2024-01-30T00:55:37;16.95;;;9.98;;
6671;SDS011;3372;48.690;12.362;2024-01-30T00:58:03;18.33;;;10.43;;
6671;SDS011;3372;48.690;12.362;2024-01-30T01:00:29;15.02;;;9.70;;
6671;SDS011;3372;48.690;12.362;2024-01-30T01:02:57;17.80;;;10.05;;
6671;SDS011;3372;48.690;12.362;2024-01-30T01:05:23;14.90;;;9.40;;
6671;SDS011;3372;48.690;12.362;2024-01-30T01:07:48;16.75;;;9.88;;
6671;SDS011;3372;48.690;12.362;2024-01-30T01:10:15;17.55;;;9.80;;
6671;SDS011;3372;48.690;12.362;2024-01-30T01:12:41;18.38;;;11.15;;
6671;SDS011;3372;48.690;12.362;2024-01-30T01:15:07;15.90;;;10.00;;
6671;SDS011;3372;48.690;12.362;2024-01-30T01:17:37;18.55;;;10.35;;
6671;SDS011;3372;48.690;12.362;2024-01-30T01:20:03;15.90;;;10.00;;
6671;SDS011;3372;48.690;12.362;2024-01-30T01:22:30;18.08;;;10.05;;
6671;SDS011;3372;48.690;12.362;2024-01-30T01:24:57;14.77;;;11.10;;
6671;SDS011;3372;48.690;12.362;2024-01-30T01:27:23;14.77;;;9.20;;
6671;SDS011;3372;48.690;12.362;2024-01-30T01:29:49;18.67;;;11.18;;
6671;SDS011;3372;48.690;12.362;2024-01-30T01:32:15;17.65;;;10.30;;
6671;SDS011;3372;48.690;12.362;2024-01-30T01:34:41;18.50;;;10.18;;
6671;SDS011;3372;48.690;12.362;2024-01-30T01:37:07;15.88;;;10.20;;
6671;SDS011;3372;48.690;12.362;2024-01-30T01:39:33;17.25;;;10.35;;
6671;SDS011;3372;48.690;12.362;2024-01-30T01:41:59;17.55;;;10.45;;
6671;SDS011;3372;48.690;12.362;2024-01-30T01:44:25;17.23;;;10.35;;
6671;SDS011;3372;48.690;12.362;2024-01-30T01:46:51;17.05;;;10.82;;
6671;SDS011;3372;48.690;12.362;2024-01-30T01:49:17;16.13;;;11.07;;
6671;SDS011;3372;48.690;12.362;2024-01-30T01:51:44;16.70;;;11.45;;
6671;SDS011;3372;48.690;12.362;2024-01-30T01:54:10;16.60;;;10.88;;
6671;SDS011;3372;48.690;12.362;2024-01-30T01:56:37;15.40;;;11.23;;
6671;SDS011;3372;48.690;12.362;2024-01-30T01:59:06;18.00;;;11.43;;
6671;SDS011;3372;48.690;12.362;2024-01-30T02:01:33;16.85;;;10.48;;
6671;SDS011;3372;48.690;12.362;2024-01-30T02:04:00;14.65;;;10.25;;
6671;SDS011;3372;48.690;12.362;2024-01-30T02:06:26;14.40;;;10.10;;
6671;SDS011;3372;48.690;12.362;2024-01-30T02:08:52;21.90;;;12.20;;
6671;SDS011;3372;48.690;12.362;2024-01-30T02:11:19;17.23;;;10.30;;
6671;SDS011;3372;48.690;12.362;2024-01-30T02:13:46;17.65;;;10.80;;
6671;SDS011;3372;48.690;12.362;2024-01-30T02:16:12;17.23;;;11.05;;
6671;SDS011;3372;48.690;12.362;2024-01-30T02:18:38;18.63;;;10.75;;
6671;SDS011;3372;48.690;12.362;2024-01-30T02:21:08;19.75;;;11.35;;
6671;SDS011;3372;48.690;12.362;2024-01-30T02:23:34;15.13;;;10.93;;
6671;SDS011;3372;48.690;12.362;2024-01-30T02:26:00;14.63;;;10.57;;
6671;SDS011;3372;48.690;12.362;2024-01-30T02:28:26;18.55;;;11.30;;
6671;SDS011;3372;48.690;12.362;2024-01-30T02:30:52;17.20;;;10.93;;
6671;SDS011;3372;48.690;12.362;2024-01-30T02:33:18;18.55;;;11.40;;
6671;SDS011;3372;48.690;12.362;2024-01-30T02:35:44;19.77;;;11.75;;
6671;SDS011;3372;48.690;12.362;2024-01-30T02:38:10;18.00;;;10.88;;
6671;SDS011;3372;48.690;12.362;2024-01-30T02:40:36;16.65;;;10.82;;
6671;SDS011;3372;48.690;12.362;2024-01-30T02:43:02;17.02;;;11.75;;
6671;SDS011;3372;48.690;12.362;2024-01-30T02:45:28;16.70;;;9.57;;
6671;SDS011;3372;48.690;12.362;2024-01-30T02:47:54;15.05;;;10.52;;
6671;SDS011;3372;48.690;12.362;2024-01-30T02:50:20;18.13;;;11.00;;
6671;SDS011;3372;48.690;12.362;2024-01-30T02:52:46;18.10;;;10.70;;
6671;SDS011;3372;48.690;12.362;2024-01-30T02:55:12;17.30;;;11.52;;
6671;SDS011;3372;48.690;12.362;2024-01-30T02:57:38;15.43;;;11.20;;
6671;SDS011;3372;48.690;12.362;2024-01-30T03:00:05;18.20;;;11.77;;
6671;SDS011;3372;48.690;12.362;2024-01-30T03:02:31;19.40;;;12.35;;
6671;SDS011;3372;48.690;12.362;2024-01-30T03:04:57;20.25;;;12.43;;
6671;SDS011;3372;48.690;12.362;2024-01-30T03:07:23;22.15;;;13.25;;
6671;SDS011;3372;48.690;12.362;2024-01-30T03:09:49;21.65;;;13.52;;
6671;SDS011;3372;48.690;12.362;2024-01-30T03:12:15;22.90;;;13.25;;
6671;SDS011;3372;48.690;12.362;2024-01-30T03:14:41;19.25;;;12.52;;
6671;SDS011;3372;48.690;12.362;2024-01-30T03:17:07;15.68;;;11.48;;
6671;SDS011;3372;48.690;12.362;2024-01-30T03:19:33;17.95;;;12.00;;
6671;SDS011;3372;48.690;12.362;2024-01-30T03:21:59;21.10;;;11.73;;
6671;SDS011;3372;48.690;12.362;2024-01-30T03:24:25;19.77;;;12.15;;
6671;SDS011;3372;48.690;12.362;2024-01-30T03:26:51;19.60;;;12.40;;
6671;SDS011;3372;48.690;12.362;2024-01-30T03:29:17;19.45;;;12.43;;
6671;SDS011;3372;48.690;12.362;2024-01-30T03:31:43;23.40;;;12.20;;
6671;SDS011;3372;48.690;12.362;2024-01-30T03:34:09;23.80;;;13.35;;
6671;SDS011;3372;48.690;12.362;2024-01-30T03:36:35;20.52;;;14.38;;
6671;SDS011;3372;48.690;12.362;2024-01-30T03:39:01;18.35;;;11.73;;
6671;SDS011;3372;48.690;12.362;2024-01-30T03:41:28;19.63;;;13.40;;
6671;SDS011;3372;48.690;12.362;2024-01-30T03:43:54;20.75;;;13.13;;
6671;SDS011;3372;48.690;12.362;2024-01-30T03:46:20;21.83;;;13.10;;
6671;SDS011;3372;48.690;12.362;2024-01-30T03:48:45;21.92;;;13.30;;
6671;SDS011;3372;48.690;12.362;2024-01-30T03:51:11;21.67;;;13.10;;
6671;SDS011;3372;48.690;12.362;2024-01-30T03:53:39;22.65;;;13.95;;
6671;SDS011;3372;48.690;12.362;2024-01-30T03:56:06;19.80;;;13.20;;
6671;SDS011;3372;48.690;12.362;2024-01-30T03:58:32;23.13;;;13.27;;
6671;SDS011;3372;48.690;12.362;2024-01-30T04:00:58;22.65;;;14.80;;
6671;SDS011;3372;48.690;12.362;2024-01-30T04:03:24;24.42;;;13.90;;
6671;SDS011;3372;48.690;12.362;2024-01-30T04:05:51;23.25;;;13.52;;
6671;SDS011;3372;48.690;12.362;2024-01-30T04:10:43;23.25;;;13.70;;
6671;SDS011;3372;48.690;12.362;2024-01-30T04:13:09;24.73;;;14.57;;
6671;SDS011;3372;48.690;12.362;2024-01-30T04:15:35;22.77;;;15.55;;
6671;SDS011;3372;48.690;12.362;2024-01-30T04:18:01;20.75;;;13.88;;
6671;SDS011;3372;48.690;12.362;2024-01-30T04:20:27;20.38;;;13.35;;
6671;SDS011;3372;48.690;12.362;2024-01-30T04:22:53;24.23;;;13.82;;
6671;SDS011;3372;48.690;12.362;2024-01-30T04:25:19;22.75;;;14.05;;
6671;SDS011;3372;48.690;12.362;2024-01-30T04:27:46;23.08;;;14.15;;
6671;SDS011;3372;48.690;12.362;2024-01-30T04:30:12;25.15;;;14.23;;
6671;SDS011;3372;48.690;12.362;2024-01-30T04:32:38;22.45;;;13.25;;
6671;SDS011;3372;48.690;12.362;2024-01-30T04:35:04;26.20;;;15.77;;
6671;SDS011;3372;48.690;12.362;2024-01-30T04:37:30;22.08;;;14.57;;
6671;SDS011;3372;48.690;12.362;2024-01-30T04:39:56;21.48;;;14.13;;
6671;SDS011;3372;48.690;12.362;2024-01-30T04:42:22;23.00;;;13.90;;
6671;SDS011;3372;48.690;12.362;2024-01-30T04:44:48;24.65;;;15.13;;
6671;SDS011;3372;48.690;12.362;2024-01-30T04:47:14;22.73;;;15.55;;
6671;SDS011;3372;48.690;12.362;2024-01-30T04:49:40;24.35;;;15.32;;
6671;SDS011;3372;48.690;12.362;2024-01-30T04:52:07;27.08;;;14.60;;
6671;SDS011;3372;48.690;12.362;2024-01-30T04:54:33;23.38;;;14.07;;
6671;SDS011;3372;48.690;12.362;2024-01-30T04:56:59;26.05;;;16.15;;
6671;SDS011;3372;48.690;12.362;2024-01-30T04:59:25;25.70;;;16.42;;
6671;SDS011;3372;48.690;12.362;2024-01-30T05:01:51;25.98;;;15.45;;
6671;SDS011;3372;48.690;12.362;2024-01-30T05:04:17;30.67;;;18.00;;
6671;SDS011;3372;48.690;12.362;2024-01-30T05:06:44;31.08;;;18.52;;
6671;SDS011;3372;48.690;12.362;2024-01-30T05:09:10;32.33;;;17.90;;
6671;SDS011;3372;48.690;12.362;2024-01-30T05:11:37;24.77;;;14.35;;
6671;SDS011;3372;48.690;12.362;2024-01-30T05:14:04;25.13;;;16.77;;
6671;SDS011;3372;48.690;12.362;2024-01-30T05:16:30;28.25;;;14.75;;
6671;SDS011;3372;48.690;12.362;2024-01-30T05:18:57;30.67;;;18.80;;
6671;SDS011;3372;48.690;12.362;2024-01-30T05:21:23;29.90;;;18.08;;
6671;SDS011;3372;48.690;12.362;2024-01-30T05:23:49;29.70;;;18.27;;
6671;SDS011;3372;48.690;12.362;2024-01-30T05:26:15;26.80;;;17.17;;
6671;SDS011;3372;48.690;12.362;2024-01-30T05:28:41;29.05;;;16.20;;
6671;SDS011;3372;48.690;12.362;2024-01-30T05:31:09;26.45;;;15.52;;
6671;SDS011;3372;48.690;12.362;2024-01-30T05:33:35;24.90;;;16.75;;
6671;SDS011;3372;48.690;12.362;2024-01-30T05:36:02;26.35;;;17.40;;
6671;SDS011;3372;48.690;12.362;2024-01-30T05:38:28;26.35;;;16.40;;
6671;SDS011;3372;48.690;12.362;2024-01-30T05:40:54;29.38;;;16.70;;
6671;SDS011;3372;48.690;12.362;2024-01-30T05:43:20;27.35;;;17.35;;
6671;SDS011;3372;48.690;12.362;2024-01-30T05:45:46;28.88;;;17.05;;
6671;SDS011;3372;48.690;12.362;2024-01-30T05:48:12;26.33;;;15.57;;
6671;SDS011;3372;48.690;12.362;2024-01-30T05:50:38;24.85;;;15.43;;
6671;SDS011;3372;48.690;12.362;2024-01-30T05:53:04;27.35;;;16.70;;
6671;SDS011;3372;48.690;12.362;2024-01-30T05:55:30;24.70;;;15.90;;
6671;SDS011;3372;48.690;12.362;2024-01-30T05:57:56;33.55;;;18.08;;
6671;SDS011;3372;48.690;12.362;2024-01-30T06:00:22;29.65;;;16.95;;
6671;SDS011;3372;48.690;12.362;2024-01-30T06:02:48;26.05;;;17.88;;
6671;SDS011;3372;48.690;12.362;2024-01-30T06:05:14;27.65;;;18.50;;
6671;SDS011;3372;48.690;12.362;2024-01-30T06:07:40;29.13;;;17.30;;
6671;SDS011;3372;48.690;12.362;2024-01-30T06:10:06;28.00;;;17.40;;
6671;SDS011;3372;48.690;12.362;2024-01-30T06:12:32;25.83;;;16.63;;
6671;SDS011;3372;48.690;12.362;2024-01-30T06:14:58;26.60;;;17.55;;
6671;SDS011;3372;48.690;12.362;2024-01-30T06:17:24;27.30;;;16.58;;
6671;SDS011;3372;48.690;12.362;2024-01-30T06:19:50;30.25;;;17.05;;
6671;SDS011;3372;48.690;12.362;2024-01-30T06:22:16;29.77;;;17.75;;
6671;SDS011;3372;48.690;12.362;2024-01-30T06:24:42;28.98;;;17.85;;
6671;SDS011;3372;48.690;12.362;2024-01-30T06:27:10;27.92;;;19.27;;
6671;SDS011;3372;48.690;12.362;2024-01-30T06:29:36;30.67;;;18.25;;
6671;SDS011;3372;48.690;12.362;2024-01-30T06:32:02;28.45;;;17.48;;
6671;SDS011;3372;48.690;12.362;2024-01-30T06:34:28;30.40;;;18.60;;
6671;SDS011;3372;48.690;12.362;2024-01-30T06:36:54;29.70;;;19.65;;
6671;SDS011;3372;48.690;12.362;2024-01-30T06:39:19;38.90;;;21.40;;
6671;SDS011;3372;48.690;12.362;2024-01-30T06:41:45;34.50;;;22.15;;
6671;SDS011;3372;48.690;12.362;2024-01-30T06:44:12;30.35;;;19.67;;
6671;SDS011;3372;48.690;12.362;2024-01-30T06:46:38;31.70;;;19.05;;
6671;SDS011;3372;48.690;12.362;2024-01-30T06:49:04;42.22;;;21.88;;
6671;SDS011;3372;48.690;12.362;2024-01-30T06:51:31;37.08;;;20.75;;
6671;SDS011;3372;48.690;12.362;2024-01-30T06:53:57;35.97;;;22.48;;
6671;SDS011;3372;48.690;12.362;2024-01-30T06:56:23;39.47;;;22.35;;
6671;SDS011;3372;48.690;12.362;2024-01-30T06:58:49;36.47;;;22.58;;
6671;SDS011;3372;48.690;12.362;2024-01-30T07:01:15;38.03;;;24.58;;
6671;SDS011;3372;48.690;12.362;2024-01-30T07:03:42;44.20;;;25.63;;
6671;SDS011;3372;48.690;12.362;2024-01-30T07:06:08;36.78;;;23.13;;
6671;SDS011;3372;48.690;12.362;2024-01-30T07:08:35;39.05;;;23.60;;
6671;SDS011;3372;48.690;12.362;2024-01-30T07:11:03;48.45;;;28.15;;
6671;SDS011;3372;48.690;12.362;2024-01-30T07:13:29;41.38;;;25.48;;
6671;SDS011;3372;48.690;12.362;2024-01-30T07:15:55;42.72;;;25.67;;
6671;SDS011;3372;48.690;12.362;2024-01-30T07:18:21;38.83;;;23.83;;
6671;SDS011;3372;48.690;12.362;2024-01-30T07:20:47;40.22;;;25.00;;
6671;SDS011;3372;48.690;12.362;2024-01-30T07:23:14;37.90;;;22.85;;
6671;SDS011;3372;48.690;12.362;2024-01-30T07:25:43;39.72;;;23.33;;
6671;SDS011;3372;48.690;12.362;2024-01-30T07:28:09;39.67;;;23.42;;
6671;SDS011;3372;48.690;12.362;2024-01-30T07:30:36;36.35;;;22.65;;
6671;SDS011;3372;48.690;12.362;2024-01-30T07:33:02;40.00;;;24.23;;
6671;SDS011;3372;48.690;12.362;2024-01-30T07:35:28;38.80;;;24.45;;
6671;SDS011;3372;48.690;12.362;2024-01-30T07:37:54;36.72;;;23.58;;
6671;SDS011;3372;48.690;12.362;2024-01-30T07:40:21;39.92;;;25.42;;
6671;SDS011;3372;48.690;12.362;2024-01-30T07:42:47;47.33;;;29.77;;
6671;SDS011;3372;48.690;12.362;2024-01-30T07:45:14;43.75;;;26.58;;
6671;SDS011;3372;48.690;12.362;2024-01-30T07:47:40;49.40;;;28.25;;
6671;SDS011;3372;48.690;12.362;2024-01-30T07:50:08;42.33;;;26.10;;
6671;SDS011;3372;48.690;12.362;2024-01-30T07:52:34;39.10;;;24.40;;
6671;SDS011;3372;48.690;12.362;2024-01-30T07:55:00;39.20;;;23.67;;
6671;SDS011;3372;48.690;12.362;2024-01-30T07:57:29;41.60;;;25.27;;
6671;SDS011;3372;48.690;12.362;2024-01-30T07:59:55;53.90;;;31.02;;
6671;SDS011;3372;48.690;12.362;2024-01-30T08:02:22;43.78;;;27.45;;
6671;SDS011;3372;48.690;12.362;2024-01-30T08:04:48;35.92;;;26.70;;
6671;SDS011;3372;48.690;12.362;2024-01-30T08:07:14;39.28;;;25.52;;
6671;SDS011;3372;48.690;12.362;2024-01-30T08:09:40;51.30;;;28.85;;
6671;SDS011;3372;48.690;12.362;2024-01-30T08:12:06;46.78;;;29.90;;
6671;SDS011;3372;48.690;12.362;2024-01-30T08:14:32;43.88;;;28.08;;
6671;SDS011;3372;48.690;12.362;2024-01-30T08:16:58;49.97;;;29.65;;
6671;SDS011;3372;48.690;12.362;2024-01-30T08:19:24;39.13;;;24.73;;
6671;SDS011;3372;48.690;12.362;2024-01-30T08:21:50;46.08;;;31.17;;
6671;SDS011;3372;48.690;12.362;2024-01-30T08:24:16;57.78;;;35.50;;
6671;SDS011;3372;48.690;12.362;2024-01-30T08:26:42;59.97;;;40.17;;
6671;SDS011;3372;48.690;12.362;2024-01-30T08:29:08;56.65;;;36.40;;
6671;SDS011;3372;48.690;12.362;2024-01-30T08:31:34;59.83;;;37.70;;
6671;SDS011;3372;48.690;12.362;2024-01-30T08:34:00;61.25;;;40.47;;
6671;SDS011;3372;48.690;12.362;2024-01-30T08:36:26;54.60;;;36.25;;
6671;SDS011;3372;48.690;12.362;2024-01-30T08:38:52;53.67;;;37.17;;
6671;SDS011;3372;48.690;12.362;2024-01-30T08:41:18;56.53;;;32.42;;
6671;SDS011;3372;48.690;12.362;2024-01-30T08:43:44;35.40;;;23.05;;
6671;SDS011;3372;48.690;12.362;2024-01-30T08:46:11;32.33;;;23.48;;
6671;SDS011;3372;48.690;12.362;2024-01-30T08:48:37;32.90;;;22.23;;
6671;SDS011;3372;48.690;12.362;2024-01-30T08:51:03;33.15;;;22.10;;
6671;SDS011;3372;48.690;12.362;2024-01-30T08:53:33;35.85;;;21.73;;
6671;SDS011;3372;48.690;12.362;2024-01-30T08:55:59;35.55;;;23.92;;
6671;SDS011;3372;48.690;12.362;2024-01-30T08:58:24;37.00;;;25.83;;
6671;SDS011;3372;48.690;12.362;2024-01-30T09:00:52;52.92;;;32.83;;
6671;SDS011;3372;48.690;12.362;2024-01-30T09:03:18;40.15;;;26.58;;
6671;SDS011;3372;48.690;12.362;2024-01-30T09:05:44;35.67;;;21.85;;
6671;SDS011;3372;48.690;12.362;2024-01-30T09:08:10;38.08;;;22.90;;
6671;SDS011;3372;48.690;12.362;2024-01-30T09:10:36;35.92;;;23.70;;
6671;SDS011;3372;48.690;12.362;2024-01-30T09:13:02;36.75;;;23.85;;
6671;SDS011;3372;48.690;12.362;2024-01-30T09:15:28;34.90;;;22.50;;
6671;SDS011;3372;48.690;12.362;2024-01-30T09:17:54;38.53;;;22.80;;
6671;SDS011;3372;48.690;12.362;2024-01-30T09:20:20;29.55;;;20.92;;
6671;SDS011;3372;48.690;12.362;2024-01-30T09:22:47;34.17;;;22.58;;
6671;SDS011;3372;48.690;12.362;2024-01-30T09:25:14;32.55;;;20.98;;
6671;SDS011;3372;48.690;12.362;2024-01-30T09:27:40;25.95;;;19.52;;
6671;SDS011;3372;48.690;12.362;2024-01-30T09:30:06;27.48;;;19.38;;
6671;SDS011;3372;48.690;12.362;2024-01-30T09:32:32;30.90;;;18.65;;
6671;SDS011;3372;48.690;12.362;2024-01-30T09:34:58;30.20;;;18.55;;
6671;SDS011;3372;48.690;12.362;2024-01-30T09:37:24;29.50;;;18.27;;
6671;SDS011;3372;48.690;12.362;2024-01-30T09:39:50;27.88;;;17.48;;
6671;SDS011;3372;48.690;12.362;2024-01-30T09:44:49;28.58;;;17.65;;
6671;SDS011;3372;48.690;12.362;2024-01-30T09:47:17;26.48;;;17.75;;
6671;SDS011;3372;48.690;12.362;2024-01-30T09:49:43;25.45;;;17.23;;
6671;SDS011;3372;48.690;12.362;2024-01-30T09:52:09;24.88;;;19.08;;
6671;SDS011;3372;48.690;12.362;2024-01-30T09:54:36;27.23;;;19.02;;
6671;SDS011;3372;48.690;12.362;2024-01-30T09:57:05;26.10;;;17.67;;
6671;SDS011;3372;48.690;12.362;2024-01-30T09:59:32;23.95;;;16.75;;
6671;SDS011;3372;48.690;12.362;2024-01-30T10:01:58;25.10;;;16.35;;
6671;SDS011;3372;48.690;12.362;2024-01-30T10:04:24;25.48;;;16.33;;
6671;SDS011;3372;48.690;12.362;2024-01-30T10:06:50;22.65;;;16.38;;
6671;SDS011;3372;48.690;12.362;2024-01-30T10:09:16;22.02;;;15.60;;
6671;SDS011;3372;48.690;12.362;2024-01-30T10:11:42;21.10;;;14.15;;
6671;SDS011;3372;48.690;12.362;2024-01-30T10:14:09;20.35;;;15.20;;
6671;SDS011;3372;48.690;12.362;2024-01-30T10:16:35;22.83;;;13.77;;
6671;SDS011;3372;48.690;12.362;2024-01-30T10:19:01;18.30;;;14.02;;
6671;SDS011;3372;48.690;12.362;2024-01-30T10:21:27;19.73;;;14.05;;
6671;SDS011;3372;48.690;12.362;2024-01-30T10:23:53;19.95;;;13.48;;
6671;SDS011;3372;48.690;12.362;2024-01-30T10:26:19;18.85;;;13.68;;
6671;SDS011;3372;48.690;12.362;2024-01-30T10:28:47;20.08;;;14.07;;
6671;SDS011;3372;48.690;12.362;2024-01-30T10:31:17;21.65;;;14.27;;
6671;SDS011;3372;48.690;12.362;2024-01-30T10:33:44;18.42;;;12.35;;
6671;SDS011;3372;48.690;12.362;2024-01-30T10:36:10;19.70;;;12.35;;
6671;SDS011;3372;48.690;12.362;2024-01-30T10:38:38;18.38;;;12.95;;
6671;SDS011;3372;48.690;12.362;2024-01-30T10:41:06;16.48;;;11.75;;
6671;SDS011;3372;48.690;12.362;2024-01-30T10:43:40;17.98;;;12.07;;
6671;SDS011;3372;48.690;12.362;2024-01-30T10:46:11;16.38;;;12.82;;
6671;SDS011;3372;48.690;12.362;2024-01-30T10:48:42;16.98;;;12.43;;
6671;SDS011;3372;48.690;12.362;2024-01-30T10:51:09;19.45;;;11.55;;
6671;SDS011;3372;48.690;12.362;2024-01-30T10:53:35;21.63;;;13.98;;
6671;SDS011;3372;48.690;12.362;2024-01-30T10:56:02;17.88;;;13.20;;
6671;SDS011;3372;48.690;12.362;2024-01-30T10:58:29;18.67;;;14.02;;
6671;SDS011;3372;48.690;12.362;2024-01-30T11:00:55;18.95;;;12.98;;
6671;SDS011;3372;48.690;12.362;2024-01-30T11:03:21;19.95;;;14.20;;
6671;SDS011;3372;48.690;12.362;2024-01-30T11:05:50;20.13;;;15.00;;
6671;SDS011;3372;48.690;12.362;2024-01-30T11:08:26;21.95;;;15.77;;
6671;SDS011;3372;48.690;12.362;2024-01-30T11:10:56;24.05;;;15.23;;
6671;SDS011;3372;48.690;12.362;2024-01-30T11:13:29;19.30;;;14.68;;
6671;SDS011;3372;48.690;12.362;2024-01-30T11:16:02;20.75;;;15.13;;
6671;SDS011;3372;48.690;12.362;2024-01-30T11:18:29;20.77;;;13.80;;
6671;SDS011;3372;48.690;12.362;2024-01-30T11:20:56;23.50;;;15.20;;
6671;SDS011;3372;48.690;12.362;2024-01-30T11:25:48;21.30;;;15.48;;
6671;SDS011;3372;48.690;12.362;2024-01-30T11:28:15;20.50;;;15.32;;
6671;SDS011;3372;48.690;12.362;2024-01-30T11:30:41;22.30;;;15.20;;
6671;SDS011;3372;48.690;12.362;2024-01-30T11:33:11;21.48;;;15.07;;
6671;SDS011;3372;48.690;12.362;2024-01-30T11:38:22;19.23;;;15.43;;
6671;SDS011;3372;48.690;12.362;2024-01-30T11:40:48;20.95;;;14.93;;
6671;SDS011;3372;48.690;12.362;2024-01-30T11:43:14;23.58;;;15.82;;
6671;SDS011;3372;48.690;12.362;2024-01-30T11:45:40;22.60;;;15.77;;
6671;SDS011;3372;48.690;12.362;2024-01-30T11:48:08;24.40;;;16.35;;
6671;SDS011;3372;48.690;12.362;2024-01-30T11:50:35;20.20;;;15.90;;
6671;SDS011;3372;48.690;12.362;2024-01-30T11:53:03;24.38;;;16.27;;
6671;SDS011;3372;48.690;12.362;2024-01-30T11:55:30;21.50;;;15.45;;
6671;SDS011;3372;48.690;12.362;2024-01-30T11:57:59;20.20;;;15.02;;
6671;SDS011;3372;48.690;12.362;2024-01-30T12:00:25;22.55;;;16.45;;
6671;SDS011;3372;48.690;12.362;2024-01-30T12:02:51;20.10;;;13.73;;
6671;SDS011;3372;48.690;12.362;2024-01-30T12:05:21;22.15;;;13.75;;
6671;SDS011;3372;48.690;12.362;2024-01-30T12:07:47;18.98;;;13.93;;
6671;SDS011;3372;48.690;12.362;2024-01-30T12:10:13;24.45;;;14.73;;
6671;SDS011;3372;48.690;12.362;2024-01-30T12:12:44;20.08;;;14.13;;
6671;SDS011;3372;48.690;12.362;2024-01-30T12:15:11;17.92;;;13.80;;
6671;SDS011;3372;48.690;12.362;2024-01-30T12:17:38;18.20;;;14.00;;
6671;SDS011;3372;48.690;12.362;2024-01-30T12:20:08;19.23;;;13.93;;
6671;SDS011;3372;48.690;12.362;2024-01-30T12:22:38;19.55;;;14.43;;
6671;SDS011;3372;48.690;12.362;2024-01-30T12:25:08;16.63;;;12.55;;
6671;SDS011;3372;48.690;12.362;2024-01-30T12:27:35;19.00;;;13.48;;
6671;SDS011;3372;48.690;12.362;2024-01-30T12:30:01;39.05;;;17.17;;
6671;SDS011;3372;48.690;12.362;2024-01-30T12:32:30;19.30;;;13.27;;
6671;SDS011;3372;48.690;12.362;2024-01-30T12:34:57;20.98;;;14.10;;
6671;SDS011;3372;48.690;12.362;2024-01-30T12:39:49;19.30;;;14.40;;
6671;SDS011;3372;48.690;12.362;2024-01-30T12:42:15;20.38;;;13.82;;
6671;SDS011;3372;48.690;12.362;2024-01-30T12:44:41;18.30;;;13.05;;
6671;SDS011;3372;48.690;12.362;2024-01-30T12:47:10;22.10;;;14.57;;
6671;SDS011;3372;48.690;12.362;2024-01-30T12:49:36;19.75;;;13.65;;
6671;SDS011;3372;48.690;12.362;2024-01-30T12:52:02;17.75;;;13.95;;
6671;SDS011;3372;48.690;12.362;2024-01-30T12:54:29;19.08;;;13.57;;
6671;SDS011;3372;48.690;12.362;2024-01-30T12:56:54;20.75;;;13.90;;
6671;SDS011;3372;48.690;12.362;2024-01-30T12:59:21;20.90;;;13.70;;
6671;SDS011;3372;48.690;12.362;2024-01-30T13:01:48;17.73;;;13.95;;
6671;SDS011;3372;48.690;12.362;2024-01-30T13:04:14;18.85;;;14.18;;
6671;SDS011;3372;48.690;12.362;2024-01-30T13:06:40;20.65;;;12.93;;
6671;SDS011;3372;48.690;12.362;2024-01-30T13:09:06;18.02;;;12.85;;
6671;SDS011;3372;48.690;12.362;2024-01-30T13:11:32;19.17;;;11.85;;
6671;SDS011;3372;48.690;12.362;2024-01-30T13:13:59;18.40;;;12.70;;
6671;SDS011;3372;48.690;12.362;2024-01-30T13:16:25;17.27;;;13.07;;
6671;SDS011;3372;48.690;12.362;2024-01-30T13:18:51;18.95;;;12.23;;
6671;SDS011;3372;48.690;12.362;2024-01-30T13:21:17;19.25;;;13.60;;
6671;SDS011;3372;48.690;12.362;2024-01-30T13:23:43;20.55;;;13.27;;
6671;SDS011;3372;48.690;12.362;2024-01-30T13:26:09;20.17;;;14.45;;
6671;SDS011;3372;48.690;12.362;2024-01-30T13:28:35;21.60;;;15.43;;
6671;SDS011;3372;48.690;12.362;2024-01-30T13:31:01;18.75;;;14.25;;
6671;SDS011;3372;48.690;12.362;2024-01-30T13:33:27;16.40;;;13.93;;
6671;SDS011;3372;48.690;12.362;2024-01-30T13:35:53;19.45;;;15.40;;
6671;SDS011;3372;48.690;12.362;2024-01-30T13:38:19;17.55;;;14.30;;
6671;SDS011;3372;48.690;12.362;2024-01-30T13:40:45;21.02;;;15.60;;
6671;SDS011;3372;48.690;12.362;2024-01-30T13:43:11;19.90;;;15.18;;
6671;SDS011;3372;48.690;12.362;2024-01-30T13:45:37;17.88;;;14.73;;
6671;SDS011;3372;48.690;12.362;2024-01-30T13:48:03;19.30;;;14.15;;
6671;SDS011;3372;48.690;12.362;2024-01-30T13:50:29;21.48;;;14.10;;
6671;SDS011;3372;48.690;12.362;2024-01-30T13:52:55;18.60;;;12.80;;
6671;SDS011;3372;48.690;12.362;2024-01-30T13:55:22;18.67;;;13.05;;
6671;SDS011;3372;48.690;12.362;2024-01-30T13:57:48;18.05;;;12.95;;
6671;SDS011;3372;48.690;12.362;2024-01-30T14:00:14;17.90;;;12.93;;
6671;SDS011;3372;48.690;12.362;2024-01-30T14:02:41;15.43;;;10.57;;
6671;SDS011;3372;48.690;12.362;2024-01-30T14:05:07;16.70;;;11.10;;
6671;SDS011;3372;48.690;12.362;2024-01-30T14:07:33;18.08;;;11.45;;
6671;SDS011;3372;48.690;12.362;2024-01-30T14:09:59;17.92;;;11.73;;
6671;SDS011;3372;48.690;12.362;2024-01-30T14:12:25;18.90;;;12.27;;
6671;SDS011;3372;48.690;12.362;2024-01-30T14:14:51;19.73;;;11.80;;
6671;SDS011;3372;48.690;12.362;2024-01-30T14:17:17;19.45;;;11.43;;
6671;SDS011;3372;48.690;12.362;2024-01-30T14:19:43;16.40;;;11.70;;
6671;SDS011;3372;48.690;12.362;2024-01-30T14:22:09;15.90;;;12.68;;
6671;SDS011;3372;48.690;12.362;2024-01-30T14:24:35;17.00;;;12.70;;
6671;SDS011;3372;48.690;12.362;2024-01-30T14:27:02;20.10;;;13.48;;
6671;SDS011;3372;48.690;12.362;2024-01-30T14:29:28;16.02;;;11.77;;
6671;SDS011;3372;48.690;12.362;2024-01-30T14:31:54;17.63;;;13.85;;
6671;SDS011;3372;48.690;12.362;2024-01-30T14:34:21;22.25;;;18.35;;
6671;SDS011;3372;48.690;12.362;2024-01-30T14:36:47;22.55;;;15.75;;
6671;SDS011;3372;48.690;12.362;2024-01-30T14:39:13;22.48;;;16.20;;
6671;SDS011;3372;48.690;12.362;2024-01-30T14:41:39;19.48;;;15.02;;
6671;SDS011;3372;48.690;12.362;2024-01-30T14:44:05;19.92;;;14.88;;